Time;durP1;ratioP1;P1;durP2;ratioP2;P2;SDS_P1;SDS_P2;PMS_P1;PMS_P2;Temp;Humidity;BMP_temperature;BMP_pressure;BME280_temperature;BME280_humidity;BME280_pressure;Samples;Min_cycle;Max_cycle;Signal;HPM_P1;HPM_P2
2022/06/18 00:02:13;;;;;;;21.80;3.75;;;42.20;22.30;;;;;;5037371;28;20022;-61
2022/06/18 00:04:39;;;;;;;29.02;3.28;;;42.00;22.10;;;;;;5039929;28;20471;-60
2022/06/18 00:07:09;;;;;;;21.33;3.20;;;42.00;22.50;;;;;;5012735;28;20033;-63
2022/06/18 00:09:41;;;;;;;19.27;3.35;;;42.00;22.30;;;;;;5023109;28;20053;-61
2022/06/18 00:15:03;;;;;;;22.40;3.88;;;42.00;22.70;;;;;;5016278;28;20037;-64
2022/06/18 00:17:30;;;;;;;29.02;3.63;;;41.90;22.90;;;;;;4999688;28;20028;-61
2022/06/18 00:19:57;;;;;;;18.35;3.55;;;41.80;22.90;;;;;;5018367;28;20169;-60
2022/06/18 00:22:24;;;;;;;18.98;3.38;;;41.80;22.90;;;;;;5033621;28;20036;-59
2022/06/18 00:24:51;;;;;;;24.75;2.70;;;41.60;23.50;;;;;;5030724;28;20048;-60
2022/06/18 00:27:19;;;;;;;26.27;2.80;;;41.60;23.10;;;;;;5031758;28;20125;-62
2022/06/18 00:29:47;;;;;;;24.60;3.60;;;41.50;23.10;;;;;;5017131;28;20026;-60
2022/06/18 00:32:13;;;;;;;30.33;3.28;;;41.60;23.90;;;;;;5014202;28;20030;-66
2022/06/18 00:34:40;;;;;;;29.40;3.53;;;41.60;24.00;;;;;;5017052;28;20050;-61
2022/06/18 00:37:07;;;;;;;29.08;3.58;;;41.30;23.30;;;;;;5013312;28;20068;-61
2022/06/18 00:39:34;;;;;;;25.73;3.00;;;41.20;23.30;;;;;;5010920;28;20030;-60
2022/06/18 00:42:06;;;;;;;22.35;3.15;;;41.10;23.40;;;;;;5028105;28;20032;-59
2022/06/18 00:44:36;;;;;;;18.42;2.80;;;41.20;23.70;;;;;;5014766;28;20136;-59
2022/06/18 00:47:20;;;;;;;31.92;3.83;;;41.20;23.80;;;;;;5024866;28;20033;-62
2022/06/18 00:49:55;;;;;;;29.83;3.40;;;41.20;23.50;;;;;;5027321;28;20427;-61
2022/06/18 00:52:37;;;;;;;31.25;3.15;;;41.10;23.40;;;;;;5029970;28;20107;-59
2022/06/18 00:55:23;;;;;;;20.67;3.42;;;41.00;23.90;;;;;;5033313;28;20133;-60
2022/06/18 00:57:53;;;;;;;;;;;40.90;24.10;;;;;;5025803;28;20025;-59
2022/06/18 01:00:28;;;;;;;25.70;3.65;;;40.90;24.00;;;;;;5008394;28;19909;-60
2022/06/18 01:02:55;;;;;;;;;;;40.90;24.30;;;;;;5001595;28;20061;-62
2022/06/18 01:05:24;;;;;;;32.00;3.33;;;40.70;23.50;;;;;;5033138;28;19913;-60
2022/06/18 01:07:59;;;;;;;21.35;3.08;;;40.60;24.00;;;;;;5030190;28;20030;-58
2022/06/18 01:10:36;;;;;;;23.17;3.30;;;40.60;23.70;;;;;;5029453;28;20359;-60
2022/06/18 01:13:07;;;;;;;23.85;3.00;;;40.50;23.90;;;;;;5033898;28;20513;-60
2022/06/18 01:15:34;;;;;;;43.42;5.50;;;40.40;23.70;;;;;;5028550;28;20106;-61
2022/06/18 01:18:03;;;;;;;68.82;6.95;;;40.30;21.60;;;;;;5043031;28;20483;-60
2022/06/18 01:20:30;;;;;;;85.78;7.78;;;40.30;20.90;;;;;;5026704;28;20076;-61
2022/06/18 01:23:06;;;;;;;63.50;7.35;;;40.10;20.40;;;;;;5029735;28;20029;-61
2022/06/18 01:25:33;;;;;;;93.80;8.60;;;40.10;20.60;;;;;;5026670;28;20033;-62
2022/06/18 01:27:59;;;;;;;76.32;8.20;;;40.00;20.00;;;;;;5001421;28;20036;-63
2022/06/18 01:30:36;;;;;;;73.78;8.13;;;39.90;20.80;;;;;;5016537;28;20025;-62
2022/06/18 01:33:06;;;;;;;73.55;7.50;;;39.80;20.50;;;;;;5018697;28;20034;-60
2022/06/18 01:35:35;;;;;;;61.50;7.95;;;39.70;20.60;;;;;;5033639;28;20042;-60
2022/06/18 01:38:02;;;;;;;73.32;8.18;;;39.60;21.10;;;;;;5029517;28;20391;-61
2022/06/18 01:40:41;;;;;;;52.58;7.50;;;39.50;21.00;;;;;;5012120;28;20453;-60
2022/06/18 01:43:10;;;;;;;55.67;7.65;;;39.30;20.80;;;;;;5030007;28;20051;-60
2022/06/18 01:45:38;;;;;;;40.45;6.32;;;39.20;21.40;;;;;;5016092;28;20049;-60
2022/06/18 01:48:22;;;;;;;49.58;7.03;;;39.10;20.80;;;;;;5013974;28;20028;-62
2022/06/18 01:51:05;;;;;;;62.25;7.60;;;39.00;21.00;;;;;;5015275;28;20034;-60
2022/06/18 01:53:44;;;;;;;55.10;8.00;;;38.90;21.40;;;;;;5013305;28;20040;-61
2022/06/18 01:56:17;;;;;;;83.50;8.73;;;38.70;21.10;;;;;;5015747;28;20065;-62
2022/06/18 01:59:00;;;;;;;31.17;7.22;;;38.50;20.40;;;;;;5015558;28;20034;-60
2022/06/18 02:01:31;;;;;;;43.80;7.35;;;38.30;19.60;;;;;;5033992;28;20109;-60
2022/06/18 02:04:00;;;;;;;40.60;6.75;;;38.20;20.00;;;;;;5036141;28;20062;-60
2022/06/18 02:06:29;;;;;;;43.17;5.80;;;38.00;19.80;;;;;;5029243;28;20499;-61
2022/06/18 02:08:55;;;;;;;54.75;5.93;;;37.80;19.30;;;;;;5029901;28;20140;-60
2022/06/18 02:11:23;;;;;;;40.47;6.57;;;37.60;18.80;;;;;;5023430;28;20552;-60
2022/06/18 02:14:02;;;;;;;42.22;6.82;;;37.60;18.80;;;;;;5045769;28;20062;-63
2022/06/18 02:16:33;;;;;;;49.00;6.97;;;37.40;18.60;;;;;;5027344;28;20129;-60
2022/06/18 02:19:03;;;;;;;41.30;6.60;;;37.30;18.30;;;;;;5030265;28;20416;-60
2022/06/18 02:21:35;;;;;;;51.03;6.03;;;37.00;17.90;;;;;;5030816;28;20062;-61
2022/06/18 02:24:01;;;;;;;45.40;6.53;;;36.80;17.70;;;;;;5013506;28;20039;-60
2022/06/18 02:26:29;;;;;;;36.72;5.85;;;36.70;17.40;;;;;;5008028;28;20045;-60
2022/06/18 02:28:57;;;;;;;57.85;7.63;;;36.60;17.40;;;;;;5025747;28;20045;-60
2022/06/18 02:31:30;;;;;;;73.43;8.40;;;36.50;18.00;;;;;;5012526;28;20048;-59
2022/06/18 02:34:01;;;;;;;62.63;7.97;;;36.40;17.50;;;;;;5000420;28;20427;-59
2022/06/18 02:36:33;;;;;;;64.82;9.40;;;36.20;17.20;;;;;;5015263;28;20482;-58
2022/06/18 02:39:07;;;;;;;80.38;8.60;;;35.90;17.60;;;;;;5011492;28;20142;-58
2022/06/18 02:41:35;;;;;;;58.28;8.18;;;35.80;16.90;;;;;;5033207;28;20093;-58
2022/06/18 02:44:02;;;;;;;75.93;9.10;;;35.70;17.10;;;;;;5026193;28;20120;-57
2022/06/18 02:46:28;;;;;;;64.63;8.25;;;35.60;17.00;;;;;;5019428;28;20532;-57
2022/06/18 02:48:56;;;;;;;61.83;8.05;;;35.40;16.70;;;;;;5015743;28;20063;-58
2022/06/18 02:51:23;;;;;;;59.88;8.60;;;35.30;16.50;;;;;;5013055;28;20072;-57
2022/06/18 02:53:49;;;;;;;53.08;7.45;;;35.10;16.60;;;;;;5012288;28;20133;-59
2022/06/18 02:56:16;;;;;;;61.97;7.25;;;35.00;16.50;;;;;;5028876;28;20073;-59
2022/06/18 02:58:45;;;;;;;53.80;7.30;;;34.90;16.70;;;;;;4998890;28;20145;-60
2022/06/18 03:01:22;;;;;;;50.08;6.43;;;34.80;16.80;;;;;;5029336;28;20082;-56
2022/06/18 03:03:51;;;;;;;55.80;7.05;;;34.70;16.90;;;;;;5010473;28;20045;-60
2022/06/18 03:06:20;;;;;;;38.17;6.63;;;34.50;17.10;;;;;;5015812;28;20055;-59
2022/06/18 03:08:48;;;;;;;50.97;6.80;;;34.40;17.40;;;;;;5014491;28;20062;-61
2022/06/18 03:14:02;;;;;;;56.90;7.33;;;34.20;18.00;;;;;;5016980;28;20141;-56
2022/06/18 03:16:28;;;;;;;62.08;6.72;;;34.00;18.30;;;;;;5032250;28;20528;-60
2022/06/18 03:18:57;;;;;;;49.03;6.38;;;33.90;18.50;;;;;;5032645;28;20387;-60
2022/06/18 03:21:50;;;;;;;55.83;6.30;;;33.80;18.80;;;;;;5033937;28;20154;-60
2022/06/18 03:24:16;;;;;;;47.15;5.32;;;33.80;19.30;;;;;;5017889;28;20141;-59
2022/06/18 03:26:43;;;;;;;48.00;5.53;;;33.60;19.60;;;;;;5034194;28;20094;-59
2022/06/18 03:29:10;;;;;;;43.90;4.88;;;33.60;19.70;;;;;;5023671;28;20072;-58
2022/06/18 03:31:36;;;;;;;40.58;5.45;;;33.40;19.90;;;;;;5015748;28;20133;-59
2022/06/18 03:34:03;;;;;;;34.05;5.40;;;33.40;20.20;;;;;;5015672;28;20092;-58
2022/06/18 03:36:30;;;;;;;38.10;5.82;;;33.30;20.40;;;;;;5015834;28;20623;-57
2022/06/18 03:38:56;;;;;;;46.70;5.80;;;33.30;20.60;;;;;;5029469;28;20077;-57
2022/06/18 03:41:23;;;;;;;52.85;6.53;;;33.10;20.70;;;;;;5017313;28;20153;-60
2022/06/18 03:43:52;;;;;;;48.67;6.28;;;33.00;20.80;;;;;;5016789;28;20426;-60
2022/06/18 03:46:18;;;;;;;45.95;6.43;;;32.90;20.90;;;;;;5018830;28;20064;-59
2022/06/18 03:48:48;;;;;;;36.55;4.97;;;32.80;20.80;;;;;;5034270;28;20088;-58
2022/06/18 03:51:16;;;;;;;42.67;6.78;;;32.70;20.90;;;;;;5026583;28;20069;-63
2022/06/18 03:53:42;;;;;;;41.92;7.18;;;32.60;21.10;;;;;;5035468;28;20110;-59
2022/06/18 03:56:13;;;;;;;28.70;8.35;;;32.50;21.10;;;;;;5019659;28;20507;-61
2022/06/18 03:58:40;;;;;;;47.15;7.82;;;32.50;21.20;;;;;;5033575;28;20101;-60
2022/06/18 04:01:08;;;;;;;30.85;6.15;;;32.40;21.00;;;;;;5018011;28;20062;-62
2022/06/18 04:03:34;;;;;;;47.97;6.45;;;32.30;21.10;;;;;;5018590;28;20064;-57
2022/06/18 04:06:01;;;;;;;50.40;7.07;;;32.20;20.40;;;;;;5031880;28;20209;-59
2022/06/18 04:08:27;;;;;;;35.75;6.60;;;32.10;20.20;;;;;;5016961;28;20096;-60
2022/06/18 04:10:54;;;;;;;46.47;7.93;;;32.00;20.30;;;;;;5016579;28;20565;-59
2022/06/18 04:13:20;;;;;;;57.50;6.80;;;32.00;20.10;;;;;;5032863;28;20479;-60
2022/06/18 04:15:47;;;;;;;55.60;8.90;;;32.00;19.80;;;;;;5021090;28;20077;-56
2022/06/18 04:18:17;;;;;;;44.67;9.43;;;31.90;19.60;;;;;;5013598;28;20101;-61
2022/06/18 04:20:44;;;;;;;60.08;7.80;;;31.90;19.80;;;;;;5030831;28;20090;-59
2022/06/18 04:23:11;;;;;;;42.22;7.68;;;31.80;19.70;;;;;;5017390;28;20067;-57
2022/06/18 04:25:39;;;;;;;40.15;6.82;;;31.80;19.80;;;;;;5015244;28;20073;-60
2022/06/18 04:28:05;;;;;;;43.25;5.65;;;31.70;20.20;;;;;;5015849;28;20135;-60
2022/06/18 04:30:33;;;;;;;49.65;7.20;;;31.70;20.20;;;;;;5014478;28;20070;-60
2022/06/18 04:33:00;;;;;;;39.75;6.00;;;31.60;20.60;;;;;;5016030;28;20069;-61
2022/06/18 04:35:26;;;;;;;50.28;7.03;;;31.60;20.30;;;;;;5035665;28;20103;-60
2022/06/18 04:37:53;;;;;;;47.45;7.50;;;31.50;20.50;;;;;;5030972;28;20588;-63
2022/06/18 04:40:28;;;;;;;46.22;6.97;;;31.50;20.50;;;;;;5013128;28;20447;-61
2022/06/18 04:42:54;;;;;;;40.35;5.82;;;31.50;20.50;;;;;;5016817;28;20512;-59
2022/06/18 04:45:21;;;;;;;39.72;5.75;;;31.40;20.50;;;;;;5030898;28;20186;-56
2022/06/18 04:47:47;;;;;;;35.55;5.78;;;31.50;20.70;;;;;;5031760;28;20435;-59
2022/06/18 04:50:22;;;;;;;24.13;4.15;;;31.40;20.80;;;;;;5030073;28;20430;-62
2022/06/18 04:52:49;;;;;;;35.13;5.13;;;31.30;20.70;;;;;;5027306;28;20094;-59
2022/06/18 04:55:15;;;;;;;35.92;4.60;;;31.20;20.90;;;;;;5013334;28;20444;-60
2022/06/18 04:57:41;;;;;;;30.42;4.88;;;31.20;20.80;;;;;;5031187;28;20533;-60
2022/06/18 05:00:09;;;;;;;36.63;4.97;;;31.20;20.80;;;;;;5015388;28;20089;-61
2022/06/18 05:02:36;;;;;;;25.02;4.15;;;31.20;20.90;;;;;;5014160;28;20151;-60
2022/06/18 05:05:05;;;;;;;28.63;4.38;;;31.10;20.80;;;;;;5034088;28;20616;-61
2022/06/18 05:07:32;;;;;;;21.35;4.63;;;31.10;20.70;;;;;;5015623;28;20574;-60
2022/06/18 05:09:58;;;;;;;30.70;4.97;;;31.10;20.70;;;;;;5030396;28;20079;-61
2022/06/18 05:12:25;;;;;;;26.90;4.85;;;31.00;20.50;;;;;;5014425;28;20088;-59
2022/06/18 05:14:51;;;;;;;36.17;4.53;;;31.00;20.40;;;;;;5014531;28;20094;-61
2022/06/18 05:17:24;;;;;;;22.40;3.95;;;31.00;20.20;;;;;;5020636;28;20140;-58
2022/06/18 05:19:51;;;;;;;24.77;3.72;;;30.90;20.10;;;;;;5014906;28;20067;-60
2022/06/18 05:22:17;;;;;;;31.10;3.25;;;30.90;20.10;;;;;;5027598;28;20731;-59
2022/06/18 05:24:44;;;;;;;17.90;3.22;;;30.90;19.90;;;;;;5026979;28;20513;-60
2022/06/18 05:27:25;;;;;;;19.40;3.38;;;30.90;19.90;;;;;;5030696;28;20544;-61
2022/06/18 05:29:52;;;;;;;16.33;3.17;;;30.90;20.00;;;;;;5024405;28;20075;-61
2022/06/18 05:32:18;;;;;;;21.77;3.30;;;30.90;19.90;;;;;;5013202;28;20071;-57
2022/06/18 05:34:45;;;;;;;21.70;3.13;;;30.90;19.90;;;;;;5032167;28;20479;-59
2022/06/18 05:37:24;;;;;;;28.85;3.67;;;30.80;20.10;;;;;;5023827;28;20077;-59
2022/06/18 05:39:50;;;;;;;24.13;3.22;;;30.80;20.10;;;;;;5014258;28;20444;-60
2022/06/18 05:42:17;;;;;;;21.00;3.42;;;30.80;20.00;;;;;;5030001;28;20070;-58
2022/06/18 05:44:43;;;;;;;20.40;2.65;;;30.80;20.00;;;;;;5028539;28;20075;-61
2022/06/18 05:47:31;;;;;;;21.55;3.53;;;30.70;20.00;;;;;;5014542;28;20079;-60
2022/06/18 05:49:58;;;;;;;20.98;3.83;;;30.70;20.00;;;;;;5014207;28;20434;-59
2022/06/18 05:52:26;;;;;;;16.58;2.83;;;30.70;20.00;;;;;;5029986;28;20080;-60
2022/06/18 05:54:52;;;;;;;18.60;3.08;;;30.70;20.20;;;;;;5024976;28;20083;-60
2022/06/18 05:57:20;;;;;;;19.58;2.58;;;30.60;20.00;;;;;;5013155;28;20093;-58
2022/06/18 05:59:47;;;;;;;22.90;2.72;;;30.60;20.10;;;;;;5028541;28;20448;-58
2022/06/18 06:02:16;;;;;;;18.67;2.83;;;30.60;20.50;;;;;;5013111;28;20082;-59
2022/06/18 06:04:43;;;;;;;25.42;4.00;;;30.50;20.00;;;;;;5003539;28;20163;-58
2022/06/18 06:07:14;;;;;;;18.25;3.05;;;30.50;20.10;;;;;;5012154;28;20157;-60
2022/06/18 06:12:25;;;;;;;13.13;3.00;;;30.50;20.10;;;;;;5014753;28;20432;-57
2022/06/18 06:14:52;;;;;;;13.52;2.53;;;30.40;20.00;;;;;;5014844;28;20087;-60
2022/06/18 06:17:23;;;;;;;18.67;2.88;;;30.40;19.80;;;;;;5030830;28;20072;-59
2022/06/18 06:19:58;;;;;;;11.35;2.67;;;30.40;19.70;;;;;;5028811;28;20122;-57
2022/06/18 06:22:25;;;;;;;15.27;2.60;;;30.40;19.60;;;;;;5028439;28;20134;-58
2022/06/18 06:24:51;;;;;;;19.10;2.85;;;30.30;19.60;;;;;;5027636;28;20108;-58
2022/06/18 06:27:18;;;;;;;11.68;2.85;;;30.30;19.60;;;;;;5028421;28;20068;-61
2022/06/18 06:29:44;;;;;;;13.35;2.33;;;30.30;19.80;;;;;;5038398;28;20078;-58
2022/06/18 06:32:10;;;;;;;16.92;2.47;;;30.10;20.00;;;;;;5011473;28;20078;-58
2022/06/18 06:34:37;;;;;;;14.75;2.28;;;30.10;20.20;;;;;;5013270;28;20112;-61
2022/06/18 06:37:04;;;;;;;8.38;2.10;;;29.90;20.50;;;;;;5018429;28;20162;-58
2022/06/18 06:39:31;;;;;;;7.05;2.33;;;29.90;20.60;;;;;;5006539;28;20063;-58
2022/06/18 06:41:57;;;;;;;7.05;2.47;;;29.80;20.70;;;;;;5014504;28;20123;-59
2022/06/18 06:44:23;;;;;;;14.55;3.67;;;29.70;20.70;;;;;;5019428;28;20095;-58
2022/06/18 06:46:52;;;;;;;7.10;3.67;;;29.50;20.70;;;;;;5015202;28;20128;-55
2022/06/18 06:49:18;;;;;;;14.07;3.90;;;29.40;20.80;;;;;;5010240;28;20065;-60
2022/06/18 06:51:44;;;;;;;20.85;3.20;;;29.30;20.20;;;;;;5014483;28;20168;-58
2022/06/18 06:54:11;;;;;;;6.72;2.63;;;29.30;20.20;;;;;;5012922;28;20069;-58
2022/06/18 06:59:22;;;;;;;8.15;2.33;;;29.20;19.70;;;;;;5015285;28;20191;-58
2022/06/18 07:01:48;;;;;;;12.75;2.13;;;29.30;19.20;;;;;;5028663;28;20076;-57
2022/06/18 07:04:15;;;;;;;9.60;2.58;;;29.30;19.00;;;;;;5013822;28;20167;-59
2022/06/18 07:06:42;;;;;;;10.82;2.28;;;29.30;18.70;;;;;;5023714;28;20071;-58
2022/06/18 07:09:09;;;;;;;8.40;2.40;;;29.30;18.60;;;;;;5010922;28;20147;-59
2022/06/18 07:11:37;;;;;;;6.95;2.08;;;29.30;18.40;;;;;;5027586;28;20091;-57
2022/06/18 07:14:04;;;;;;;7.57;2.22;;;29.30;18.60;;;;;;5027204;28;20106;-58
2022/06/18 07:16:30;;;;;;;11.55;2.58;;;29.30;18.30;;;;;;5014638;28;20110;-58
2022/06/18 07:18:58;;;;;;;4.32;2.42;;;29.30;18.10;;;;;;5028147;28;20073;-59
2022/06/18 07:21:25;;;;;;;12.00;2.67;;;29.20;18.30;;;;;;5027335;28;20569;-60
2022/06/18 07:23:51;;;;;;;8.52;2.72;;;29.20;18.00;;;;;;5023352;28;20146;-57
2022/06/18 07:26:20;;;;;;;13.95;3.03;;;29.20;18.10;;;;;;5025945;28;20077;-57
2022/06/18 07:28:47;;;;;;;13.32;2.85;;;29.10;17.60;;;;;;5029416;28;20076;-59
2022/06/18 07:31:33;;;;;;;11.43;2.80;;;29.00;17.70;;;;;;5028060;28;20146;-60
2022/06/18 07:34:01;;;;;;;14.70;2.90;;;28.90;17.80;;;;;;5025371;28;20111;-59
2022/06/18 07:36:28;;;;;;;18.05;3.15;;;28.90;17.90;;;;;;5014664;28;20226;-59
2022/06/18 07:38:54;;;;;;;13.05;2.78;;;28.80;17.80;;;;;;5015635;28;20068;-56
2022/06/18 07:41:24;;;;;;;17.52;2.75;;;28.80;18.10;;;;;;5009800;28;20414;-62
2022/06/18 07:43:54;;;;;;;9.85;2.72;;;28.80;17.90;;;;;;5029308;28;20146;-59
2022/06/18 07:46:21;;;;;;;14.07;2.90;;;28.70;17.70;;;;;;5026409;28;20168;-61
2022/06/18 07:48:47;;;;;;;13.63;2.90;;;28.70;17.60;;;;;;5028471;28;20549;-56
2022/06/18 07:51:14;;;;;;;17.42;2.70;;;28.70;17.50;;;;;;5014879;28;20077;-62
2022/06/18 07:53:41;;;;;;;11.02;2.88;;;28.70;17.30;;;;;;5032299;28;20450;-59
2022/06/18 07:56:08;;;;;;;7.82;2.17;;;28.70;17.10;;;;;;5014752;28;20540;-59
2022/06/18 07:58:35;;;;;;;8.32;2.20;;;28.70;17.90;;;;;;5030700;28;20072;-62
2022/06/18 08:01:02;;;;;;;12.65;2.33;;;28.70;17.50;;;;;;5016848;28;20067;-58
2022/06/18 08:03:28;;;;;;;13.27;2.33;;;28.60;17.70;;;;;;5015514;28;20115;-62
2022/06/18 08:05:55;;;;;;;14.05;2.50;;;28.60;18.20;;;;;;5033579;28;20599;-60
2022/06/18 08:08:22;;;;;;;16.17;2.35;;;28.50;17.50;;;;;;5033627;28;20114;-61
2022/06/18 08:10:51;;;;;;;20.65;2.60;;;28.50;17.30;;;;;;5013644;28;20103;-57
2022/06/18 08:13:18;;;;;;;19.67;2.17;;;28.50;18.20;;;;;;5032493;28;20411;-59
2022/06/18 08:15:45;;;;;;;11.95;2.03;;;28.40;17.80;;;;;;5032770;28;20547;-57
2022/06/18 08:18:12;;;;;;;9.05;1.90;;;28.30;17.80;;;;;;5031758;28;20500;-59
2022/06/18 08:20:39;;;;;;;12.15;2.25;;;28.30;18.20;;;;;;5033277;28;20204;-60
2022/06/18 08:23:06;;;;;;;10.75;2.22;;;28.30;18.30;;;;;;5014257;28;20069;-56
2022/06/18 08:25:35;;;;;;;13.80;2.25;;;28.30;19.20;;;;;;5013773;28;20105;-57
2022/06/18 08:28:04;;;;;;;12.85;1.88;;;28.30;18.90;;;;;;5017320;28;20092;-58
2022/06/18 08:30:32;;;;;;;9.40;2.20;;;28.20;18.40;;;;;;5029974;28;20096;-58
2022/06/18 08:32:58;;;;;;;14.45;2.03;;;28.20;18.50;;;;;;5031954;28;20435;-59
2022/06/18 08:35:25;;;;;;;11.48;2.10;;;28.20;18.80;;;;;;5032000;28;20124;-59
2022/06/18 08:37:52;;;;;;;10.40;2.03;;;28.10;18.80;;;;;;5028288;28;20092;-57
2022/06/18 08:40:35;;;;;;;6.88;2.10;;;28.00;19.40;;;;;;5019001;28;20069;-58
2022/06/18 08:43:30;;;;;;;12.10;2.53;;;28.00;19.40;;;;;;5015851;28;20129;-57
2022/06/18 08:46:11;;;;;;;14.60;2.13;;;27.90;19.50;;;;;;5010278;28;20096;-61
2022/06/18 08:48:44;;;;;;;5.40;2.20;;;27.90;19.40;;;;;;5033113;28;20154;-58
2022/06/18 08:51:22;;;;;;;12.40;2.38;;;27.70;19.20;;;;;;5034738;28;20095;-59
2022/06/18 08:54:19;;;;;;;12.43;2.40;;;27.80;19.30;;;;;;5029597;28;20095;-58
2022/06/18 08:56:55;;;;;;;20.80;2.30;;;27.70;19.30;;;;;;5030260;28;20120;-58
2022/06/18 08:59:48;;;;;;;19.75;2.38;;;27.70;19.30;;;;;;5026576;28;20099;-57
2022/06/18 09:02:33;;;;;;;10.02;2.22;;;27.60;19.10;;;;;;5029413;28;20455;-58
2022/06/18 09:05:23;;;;;;;11.73;2.38;;;27.50;19.50;;;;;;5029669;28;20156;-56
2022/06/18 09:08:10;;;;;;;7.60;2.33;;;27.40;20.10;;;;;;5014363;28;20097;-60
2022/06/18 09:10:49;;;;;;;7.68;2.10;;;27.30;19.80;;;;;;5028968;28;20468;-56
2022/06/18 09:13:30;;;;;;;6.68;1.70;;;27.30;20.10;;;;;;5029089;28;20567;-57
2022/06/18 09:16:04;;;;;;;7.72;1.83;;;27.30;19.60;;;;;;5031638;28;20084;-57
2022/06/18 09:18:39;;;;;;;11.00;2.88;;;27.30;19.80;;;;;;5030432;28;20111;-58
2022/06/18 09:21:11;;;;;;;20.17;2.30;;;27.20;19.60;;;;;;5015819;28;20075;-55
2022/06/18 09:23:43;;;;;;;9.98;1.98;;;27.10;19.80;;;;;;5030542;28;20523;-56
2022/06/18 09:26:19;;;;;;;9.07;2.03;;;27.10;19.40;;;;;;5029390;28;20120;-59
2022/06/18 09:29:12;;;;;;;5.93;1.80;;;27.10;19.80;;;;;;5034102;28;20183;-59
2022/06/18 09:31:48;;;;;;;11.52;2.40;;;27.00;20.10;;;;;;5031651;28;20442;-58
2022/06/18 09:34:25;;;;;;;10.38;1.75;;;27.00;19.60;;;;;;5028420;28;20203;-58
2022/06/18 09:37:01;;;;;;;14.65;2.22;;;27.00;19.70;;;;;;5014237;28;20119;-60
2022/06/18 09:39:41;;;;;;;7.30;1.98;;;27.00;19.70;;;;;;5041863;28;20076;-58
2022/06/18 09:42:17;;;;;;;13.50;2.13;;;27.00;19.60;;;;;;5000914;28;20420;-58
2022/06/18 09:45:02;;;;;;;9.40;1.90;;;27.00;19.10;;;;;;5027509;28;20076;-57
2022/06/18 09:47:39;;;;;;;14.45;2.03;;;27.10;18.90;;;;;;5017407;28;20097;-59
2022/06/18 09:50:21;;;;;;;11.55;2.10;;;27.00;18.80;;;;;;5031496;28;20077;-58
2022/06/18 09:52:55;;;;;;;10.40;2.25;;;26.90;18.80;;;;;;5030746;28;20502;-56
2022/06/18 09:55:36;;;;;;;10.10;2.50;;;26.90;20.00;;;;;;5012163;28;20187;-59
2022/06/18 09:58:09;;;;;;;13.52;3.03;;;26.80;20.50;;;;;;5013464;28;20073;-57
2022/06/18 10:00:36;;;;;;;11.98;2.45;;;26.90;19.80;;;;;;5029978;28;20073;-59
2022/06/18 10:06:52;;;;;;;7.88;2.10;;;26.80;20.90;;;;;;5030173;28;20536;-59
2022/06/18 10:08:50;;;;;;;12.70;2.55;;;26.70;19.80;;;;;;5012724;28;20080;-59
2022/06/18 10:11:19;;;;;;;10.52;2.05;;;26.70;20.30;;;;;;5030684;28;20089;-59
2022/06/18 10:13:55;;;;;;;10.82;2.38;;;26.80;20.20;;;;;;5014123;28;20553;-60
2022/06/18 10:16:27;;;;;;;16.85;2.33;;;26.70;19.90;;;;;;5026217;28;20096;-59
2022/06/18 10:19:19;;;;;;;11.45;2.40;;;26.70;20.20;;;;;;5026843;28;20080;-60
2022/06/18 10:22:34;;;;;;;20.83;2.50;;;26.70;20.00;;;;;;5013914;28;20152;-55
2022/06/18 10:25:11;;;;;;;7.03;2.08;;;26.50;21.20;;;;;;4969803;28;20090;-60
2022/06/18 10:28:06;;;;;;;13.00;2.70;;;26.50;21.00;;;;;;5031066;28;20184;-59
2022/06/18 10:30:33;;;;;;;21.30;3.30;;;26.50;21.10;;;;;;5021762;28;20085;-59
2022/06/18 10:33:05;;;;;;;13.02;2.70;;;26.50;21.10;;;;;;5029657;28;20565;-60
2022/06/18 10:35:51;;;;;;;19.33;3.40;;;26.50;21.50;;;;;;5012001;28;20117;-61
2022/06/18 10:38:36;;;;;;;20.15;3.38;;;26.50;21.60;;;;;;5013585;28;20539;-59
2022/06/18 10:41:08;;;;;;;18.02;2.75;;;26.40;21.60;;;;;;5035629;28;20073;-58
2022/06/18 10:44:02;;;;;;;13.90;2.40;;;26.20;22.10;;;;;;5014768;28;20569;-59
2022/06/18 10:46:28;;;;;;;12.05;2.38;;;26.30;22.80;;;;;;5023834;28;20077;-59
2022/06/18 10:49:01;;;;;;;13.48;2.65;;;26.30;23.10;;;;;;5027340;28;20183;-57
2022/06/18 10:51:33;;;;;;;17.58;2.50;;;26.30;23.60;;;;;;5011033;28;20523;-59
2022/06/18 10:54:01;;;;;;;19.52;3.10;;;26.30;23.40;;;;;;5034565;28;20164;-59
2022/06/18 10:56:30;;;;;;;26.42;2.88;;;26.30;23.80;;;;;;5014568;28;20652;-59
2022/06/18 10:58:59;;;;;;;16.63;2.83;;;26.20;24.30;;;;;;5028107;28;20085;-58
2022/06/18 11:01:47;;;;;;;15.93;3.63;;;26.30;24.50;;;;;;5025000;28;20474;-60
2022/06/18 11:04:23;;;;;;;22.27;3.42;;;26.20;24.80;;;;;;5004375;28;20543;-59
2022/06/18 11:07:00;;;;;;;20.48;3.17;;;26.10;24.70;;;;;;5027816;28;20763;-59
2022/06/18 11:09:28;;;;;;;;;;;26.10;24.60;;;;;;5014686;28;20108;-61
2022/06/18 11:11:59;;;;;;;14.93;2.65;;;26.10;25.10;;;;;;5027911;28;20423;-57
2022/06/18 11:14:26;;;;;;;21.52;3.25;;;26.10;25.30;;;;;;5016403;28;20120;-58
2022/06/18 11:16:55;;;;;;;17.05;3.17;;;26.10;25.80;;;;;;5029251;28;20068;-59
2022/06/18 11:19:48;;;;;;;19.73;3.25;;;26.10;26.10;;;;;;5012085;28;20074;-59
2022/06/18 11:22:28;;;;;;;21.60;3.53;;;26.10;26.00;;;;;;5011314;28;20447;-59
2022/06/18 11:24:57;;;;;;;15.80;3.05;;;26.10;26.10;;;;;;5029019;28;20081;-62
2022/06/18 11:27:28;;;;;;;21.88;3.78;;;26.00;26.10;;;;;;5031380;28;20101;-56
2022/06/18 11:29:56;;;;;;;24.08;3.38;;;26.00;26.30;;;;;;5023306;28;20095;-59
2022/06/18 11:32:48;;;;;;;18.92;3.35;;;25.90;26.00;;;;;;5015400;28;20084;-60
2022/06/18 11:35:30;;;;;;;19.60;3.33;;;25.90;26.60;;;;;;5016662;28;20111;-57
2022/06/18 11:38:22;;;;;;;26.45;3.83;;;25.90;26.60;;;;;;5018377;28;20101;-57
2022/06/18 11:40:54;;;;;;;17.80;3.45;;;25.90;26.90;;;;;;5031196;28;20163;-57
2022/06/18 11:43:35;;;;;;;21.50;3.58;;;25.80;26.70;;;;;;5022367;28;20558;-55
2022/06/18 11:46:07;;;;;;;17.27;3.40;;;25.70;26.70;;;;;;5033823;28;20077;-57
2022/06/18 11:48:48;;;;;;;27.80;4.47;;;25.70;26.80;;;;;;5017064;28;20080;-57
2022/06/18 11:51:33;;;;;;;29.27;3.47;;;25.60;27.20;;;;;;5032919;28;20104;-58
2022/06/18 11:54:11;;;;;;;12.93;3.72;;;25.50;28.10;;;;;;5016068;28;20181;-58
2022/06/18 11:56:48;;;;;;;17.70;3.97;;;25.50;27.90;;;;;;5017069;28;20450;-56
2022/06/18 11:59:22;;;;;;;28.85;3.70;;;25.40;28.40;;;;;;5033725;28;20072;-57
2022/06/18 12:01:57;;;;;;;28.65;3.92;;;25.40;28.20;;;;;;4998408;28;20074;-57
2022/06/18 12:04:33;;;;;;;21.83;4.10;;;25.40;28.20;;;;;;5031085;28;20105;-56
2022/06/18 12:07:28;;;;;;;23.27;4.15;;;25.40;27.80;;;;;;5001403;28;20099;-59
2022/06/18 12:09:55;;;;;;;27.98;4.43;;;25.30;27.60;;;;;;5017137;28;20082;-57
2022/06/18 12:12:46;;;;;;;21.30;4.65;;;25.10;28.00;;;;;;5008780;28;20092;-58
2022/06/18 12:15:43;;;;;;;31.17;5.20;;;25.10;27.90;;;;;;5017932;28;20097;-58
2022/06/18 12:18:18;;;;;;;28.57;5.70;;;25.10;28.30;;;;;;5030680;28;20069;-59
2022/06/18 12:21:09;;;;;;;37.88;5.10;;;25.10;28.10;;;;;;5017427;28;20455;-59
2022/06/18 12:23:57;;;;;;;36.67;5.57;;;25.10;28.50;;;;;;5014711;28;20547;-59
2022/06/18 12:26:35;;;;;;;34.58;5.03;;;25.00;28.40;;;;;;5041520;28;20088;-57
2022/06/18 12:29:17;;;;;;;38.20;5.80;;;24.90;28.20;;;;;;5039522;28;20115;-59
2022/06/18 12:31:59;;;;;;;45.03;6.57;;;24.70;27.80;;;;;;5019162;28;20089;-57
2022/06/18 12:34:36;;;;;;;37.08;5.53;;;24.80;28.50;;;;;;5004027;28;20586;-57
2022/06/18 12:37:08;;;;;;;41.05;6.75;;;24.90;28.30;;;;;;5030203;28;20411;-57
2022/06/18 12:39:58;;;;;;;53.92;7.88;;;24.90;28.70;;;;;;5036888;28;20697;-60
2022/06/18 12:42:44;;;;;;;45.00;7.20;;;24.90;28.40;;;;;;5019999;28;20714;-60
2022/06/18 12:45:21;;;;;;;54.67;8.80;;;24.80;28.00;;;;;;5029532;28;20099;-59
2022/06/18 12:47:53;;;;;;;62.53;9.95;;;24.70;27.40;;;;;;5017556;28;21139;-59
2022/06/18 12:50:45;;;;;;;55.83;9.70;;;24.70;27.80;;;;;;5031515;28;20081;-58
2022/06/18 12:53:14;;;;;;;49.53;9.13;;;24.70;27.80;;;;;;5018233;28;20582;-58
2022/06/18 12:55:46;;;;;;;52.90;9.13;;;24.60;28.20;;;;;;5028724;28;20115;-58
2022/06/18 12:58:37;;;;;;;43.75;8.15;;;24.60;28.30;;;;;;5017940;28;20069;-61
2022/06/18 13:01:11;;;;;;;56.65;9.55;;;24.60;29.00;;;;;;5016248;28;20078;-58
2022/06/18 13:04:08;;;;;;;61.88;8.63;;;24.60;29.60;;;;;;5029548;28;20160;-60
2022/06/18 13:07:08;;;;;;;52.67;8.18;;;24.60;29.90;;;;;;5013002;28;20081;-58
2022/06/18 13:10:02;;;;;;;41.65;6.95;;;24.50;30.60;;;;;;5006240;28;20159;-55
2022/06/18 13:12:51;;;;;;;53.42;7.10;;;24.50;31.10;;;;;;5036527;28;20171;-56
2022/06/18 13:15:39;;;;;;;43.05;7.43;;;24.50;31.40;;;;;;5032687;28;20097;-52
2022/06/18 13:18:37;;;;;;;34.40;5.70;;;24.50;31.90;;;;;;5015400;28;20065;-58
2022/06/18 13:21:07;;;;;;;41.83;5.78;;;24.50;32.70;;;;;;5011508;28;20566;-57